Terminal Aerodrome Forecast
Issued by NWS Sioux Falls, SD

Home | Current Version | Previous Version | Graphics & Text | Print | Product List | Glossary Off
Versions: 1 2 3 4 5 6 7 8 9 10 11 12 13 14 15 16 17 18 19 20 21 22 23 24 25

000
FTUS43 KFSD 290121 AAA
TAFFSD
TAF AMD
KFSD 290121Z 2901/2924 11005KT P6SM SCT080
     FM290900 VRB04KT P6SM VCSH SCT010 BKN100
      TEMPO 2912/2916 BKN010
     FM291600 08010KT P6SM BKN035=

USA.gov is the U.S. government's official web portal to all federal, state and local government web resources and services.